sensor_id;sensor_type;location;lat;lon;timestamp;P1;durP1;ratioP1;P2;durP2;ratioP2
83099;SDS011;72972;51.784;4.660;2024-03-17T00:00:37;7.32;;;4.88;;
83099;SDS011;72972;51.784;4.660;2024-03-17T00:03:05;12.82;;;5.53;;
83099;SDS011;72972;51.784;4.660;2024-03-17T00:05:30;7.85;;;5.18;;
83099;SDS011;72972;51.784;4.660;2024-03-17T00:07:56;9.73;;;5.18;;
83099;SDS011;72972;51.784;4.660;2024-03-17T00:10:21;8.00;;;4.68;;
83099;SDS011;72972;51.784;4.660;2024-03-17T00:12:46;9.43;;;5.10;;
83099;SDS011;72972;51.784;4.660;2024-03-17T00:15:12;6.70;;;4.47;;
83099;SDS011;72972;51.784;4.660;2024-03-17T00:17:37;7.65;;;4.38;;
83099;SDS011;72972;51.784;4.660;2024-03-17T00:20:03;10.63;;;4.53;;
83099;SDS011;72972;51.784;4.660;2024-03-17T00:22:34;9.80;;;5.15;;
83099;SDS011;72972;51.784;4.660;2024-03-17T00:25:05;7.57;;;5.28;;
83099;SDS011;72972;51.784;4.660;2024-03-17T00:27:31;9.60;;;5.53;;
83099;SDS011;72972;51.784;4.660;2024-03-17T00:29:57;8.15;;;5.13;;
83099;SDS011;72972;51.784;4.660;2024-03-17T00:32:22;8.43;;;5.30;;
83099;SDS011;72972;51.784;4.660;2024-03-17T00:34:48;8.95;;;5.20;;
83099;SDS011;72972;51.784;4.660;2024-03-17T00:37:14;9.70;;;5.50;;
83099;SDS011;72972;51.784;4.660;2024-03-17T00:39:39;9.73;;;5.15;;
83099;SDS011;72972;51.784;4.660;2024-03-17T00:42:05;7.80;;;5.05;;
83099;SDS011;72972;51.784;4.660;2024-03-17T00:44:30;9.25;;;5.43;;
83099;SDS011;72972;51.784;4.660;2024-03-17T00:46:55;11.07;;;5.25;;
83099;SDS011;72972;51.784;4.660;2024-03-17T00:49:21;9.65;;;5.05;;
83099;SDS011;72972;51.784;4.660;2024-03-17T00:51:46;7.85;;;5.50;;
83099;SDS011;72972;51.784;4.660;2024-03-17T00:54:14;8.57;;;5.20;;
83099;SDS011;72972;51.784;4.660;2024-03-17T00:56:39;10.88;;;5.45;;
83099;SDS011;72972;51.784;4.660;2024-03-17T00:59:05;8.77;;;5.47;;
83099;SDS011;72972;51.784;4.660;2024-03-17T01:01:30;8.98;;;5.10;;
83099;SDS011;72972;51.784;4.660;2024-03-17T01:03:56;12.57;;;6.15;;
83099;SDS011;72972;51.784;4.660;2024-03-17T01:06:21;10.25;;;5.47;;
83099;SDS011;72972;51.784;4.660;2024-03-17T01:08:47;11.70;;;5.63;;
83099;SDS011;72972;51.784;4.660;2024-03-17T01:11:14;8.75;;;5.78;;
83099;SDS011;72972;51.784;4.660;2024-03-17T01:13:41;9.68;;;5.97;;
83099;SDS011;72972;51.784;4.660;2024-03-17T01:16:08;10.75;;;6.22;;
83099;SDS011;72972;51.784;4.660;2024-03-17T01:18:33;14.05;;;6.18;;
83099;SDS011;72972;51.784;4.660;2024-03-17T01:20:59;11.75;;;6.70;;
83099;SDS011;72972;51.784;4.660;2024-03-17T01:23:25;12.43;;;6.82;;
83099;SDS011;72972;51.784;4.660;2024-03-17T01:25:50;12.13;;;6.45;;
83099;SDS011;72972;51.784;4.660;2024-03-17T01:28:16;13.88;;;6.28;;
83099;SDS011;72972;51.784;4.660;2024-03-17T01:30:41;13.50;;;6.93;;
83099;SDS011;72972;51.784;4.660;2024-03-17T01:33:06;9.43;;;6.03;;
83099;SDS011;72972;51.784;4.660;2024-03-17T01:35:32;11.52;;;6.45;;
83099;SDS011;72972;51.784;4.660;2024-03-17T01:37:58;12.45;;;6.18;;
83099;SDS011;72972;51.784;4.660;2024-03-17T01:40:24;9.93;;;6.13;;
83099;SDS011;72972;51.784;4.660;2024-03-17T01:42:49;13.68;;;6.53;;
83099;SDS011;72972;51.784;4.660;2024-03-17T01:45:30;11.57;;;6.53;;
83099;SDS011;72972;51.784;4.660;2024-03-17T01:47:59;12.65;;;6.55;;
83099;SDS011;72972;51.784;4.660;2024-03-17T01:50:28;12.48;;;6.93;;
83099;SDS011;72972;51.784;4.660;2024-03-17T01:53:03;15.00;;;6.95;;
83099;SDS011;72972;51.784;4.660;2024-03-17T01:55:36;18.17;;;6.35;;
83099;SDS011;72972;51.784;4.660;2024-03-17T01:58:03;14.43;;;6.70;;
83099;SDS011;72972;51.784;4.660;2024-03-17T02:00:32;10.85;;;6.57;;
83099;SDS011;72972;51.784;4.660;2024-03-17T02:02:59;15.50;;;8.00;;
83099;SDS011;72972;51.784;4.660;2024-03-17T02:05:24;13.95;;;7.00;;
83099;SDS011;72972;51.784;4.660;2024-03-17T02:07:49;12.30;;;7.25;;
83099;SDS011;72972;51.784;4.660;2024-03-17T02:10:15;10.60;;;6.35;;
83099;SDS011;72972;51.784;4.660;2024-03-17T02:12:40;12.93;;;6.75;;
83099;SDS011;72972;51.784;4.660;2024-03-17T02:15:06;11.73;;;6.45;;
83099;SDS011;72972;51.784;4.660;2024-03-17T02:17:32;10.35;;;6.50;;
83099;SDS011;72972;51.784;4.660;2024-03-17T02:19:58;10.73;;;6.85;;
83099;SDS011;72972;51.784;4.660;2024-03-17T02:22:24;15.77;;;7.35;;
83099;SDS011;72972;51.784;4.660;2024-03-17T02:24:50;12.75;;;7.68;;
83099;SDS011;72972;51.784;4.660;2024-03-17T02:27:15;13.88;;;6.97;;
83099;SDS011;72972;51.784;4.660;2024-03-17T02:29:40;12.07;;;7.03;;
83099;SDS011;72972;51.784;4.660;2024-03-17T02:32:06;15.10;;;6.88;;
83099;SDS011;72972;51.784;4.660;2024-03-17T02:34:36;13.00;;;6.95;;
83099;SDS011;72972;51.784;4.660;2024-03-17T02:37:02;16.10;;;7.78;;
83099;SDS011;72972;51.784;4.660;2024-03-17T02:39:29;14.63;;;7.70;;
83099;SDS011;72972;51.784;4.660;2024-03-17T02:42:02;13.43;;;6.50;;
83099;SDS011;72972;51.784;4.660;2024-03-17T02:44:30;15.07;;;7.72;;
83099;SDS011;72972;51.784;4.660;2024-03-17T02:46:56;14.20;;;6.50;;
83099;SDS011;72972;51.784;4.660;2024-03-17T02:49:25;11.57;;;6.68;;
83099;SDS011;72972;51.784;4.660;2024-03-17T02:51:52;13.82;;;6.53;;
83099;SDS011;72972;51.784;4.660;2024-03-17T02:54:21;10.65;;;6.22;;
83099;SDS011;72972;51.784;4.660;2024-03-17T02:56:50;12.48;;;7.10;;
83099;SDS011;72972;51.784;4.660;2024-03-17T02:59:16;14.23;;;6.57;;
83099;SDS011;72972;51.784;4.660;2024-03-17T03:01:42;12.40;;;7.30;;
83099;SDS011;72972;51.784;4.660;2024-03-17T03:04:07;10.57;;;6.28;;
83099;SDS011;72972;51.784;4.660;2024-03-17T03:06:33;15.35;;;6.75;;
83099;SDS011;72972;51.784;4.660;2024-03-17T03:08:59;10.27;;;6.88;;
83099;SDS011;72972;51.784;4.660;2024-03-17T03:11:24;11.88;;;6.75;;
83099;SDS011;72972;51.784;4.660;2024-03-17T03:13:49;12.48;;;6.68;;
83099;SDS011;72972;51.784;4.660;2024-03-17T03:16:15;14.23;;;6.55;;
83099;SDS011;72972;51.784;4.660;2024-03-17T03:18:40;17.02;;;7.00;;
83099;SDS011;72972;51.784;4.660;2024-03-17T03:21:07;11.30;;;6.80;;
83099;SDS011;72972;51.784;4.660;2024-03-17T03:23:33;12.30;;;6.57;;
83099;SDS011;72972;51.784;4.660;2024-03-17T03:26:01;11.35;;;7.90;;
83099;SDS011;72972;51.784;4.660;2024-03-17T03:28:28;14.52;;;7.40;;
83099;SDS011;72972;51.784;4.660;2024-03-17T03:30:54;14.02;;;8.10;;
83099;SDS011;72972;51.784;4.660;2024-03-17T03:33:20;14.45;;;8.02;;
83099;SDS011;72972;51.784;4.660;2024-03-17T03:35:46;15.55;;;8.07;;
83099;SDS011;72972;51.784;4.660;2024-03-17T03:38:12;15.10;;;8.07;;
83099;SDS011;72972;51.784;4.660;2024-03-17T03:40:39;13.35;;;7.32;;
83099;SDS011;72972;51.784;4.660;2024-03-17T03:43:04;14.10;;;8.15;;
83099;SDS011;72972;51.784;4.660;2024-03-17T03:45:30;14.77;;;8.05;;
83099;SDS011;72972;51.784;4.660;2024-03-17T03:47:55;11.73;;;7.65;;
83099;SDS011;72972;51.784;4.660;2024-03-17T03:50:21;14.55;;;7.85;;
83099;SDS011;72972;51.784;4.660;2024-03-17T03:52:48;13.27;;;7.57;;
83099;SDS011;72972;51.784;4.660;2024-03-17T03:55:15;13.70;;;7.47;;
83099;SDS011;72972;51.784;4.660;2024-03-17T03:57:42;11.52;;;7.13;;
83099;SDS011;72972;51.784;4.660;2024-03-17T04:00:18;14.52;;;7.10;;
83099;SDS011;72972;51.784;4.660;2024-03-17T04:02:47;13.23;;;7.50;;
83099;SDS011;72972;51.784;4.660;2024-03-17T04:05:13;18.45;;;8.25;;
83099;SDS011;72972;51.784;4.660;2024-03-17T04:07:39;11.75;;;7.40;;
83099;SDS011;72972;51.784;4.660;2024-03-17T04:10:05;12.30;;;7.18;;
83099;SDS011;72972;51.784;4.660;2024-03-17T04:12:31;12.63;;;7.15;;
83099;SDS011;72972;51.784;4.660;2024-03-17T04:14:58;11.60;;;7.30;;
83099;SDS011;72972;51.784;4.660;2024-03-17T04:17:24;12.93;;;7.25;;
83099;SDS011;72972;51.784;4.660;2024-03-17T04:19:50;17.90;;;7.35;;
83099;SDS011;72972;51.784;4.660;2024-03-17T04:22:17;10.27;;;6.82;;
83099;SDS011;72972;51.784;4.660;2024-03-17T04:24:44;12.70;;;7.03;;
83099;SDS011;72972;51.784;4.660;2024-03-17T04:27:10;11.90;;;6.78;;
83099;SDS011;72972;51.784;4.660;2024-03-17T04:29:36;11.85;;;7.43;;
83099;SDS011;72972;51.784;4.660;2024-03-17T04:32:01;11.23;;;6.97;;
83099;SDS011;72972;51.784;4.660;2024-03-17T04:34:27;13.15;;;6.85;;
83099;SDS011;72972;51.784;4.660;2024-03-17T04:36:53;13.20;;;7.80;;
83099;SDS011;72972;51.784;4.660;2024-03-17T04:39:19;12.38;;;6.88;;
83099;SDS011;72972;51.784;4.660;2024-03-17T04:41:45;14.75;;;7.47;;
83099;SDS011;72972;51.784;4.660;2024-03-17T04:44:13;12.50;;;7.80;;
83099;SDS011;72972;51.784;4.660;2024-03-17T04:46:38;11.23;;;6.85;;
83099;SDS011;72972;51.784;4.660;2024-03-17T04:49:03;15.00;;;6.50;;
83099;SDS011;72972;51.784;4.660;2024-03-17T04:51:29;11.38;;;7.05;;
83099;SDS011;72972;51.784;4.660;2024-03-17T04:53:54;14.80;;;7.28;;
83099;SDS011;72972;51.784;4.660;2024-03-17T04:56:20;13.75;;;7.05;;
83099;SDS011;72972;51.784;4.660;2024-03-17T04:58:46;13.88;;;7.68;;
83099;SDS011;72972;51.784;4.660;2024-03-17T05:01:11;12.18;;;7.28;;
83099;SDS011;72972;51.784;4.660;2024-03-17T05:03:38;13.20;;;6.82;;
83099;SDS011;72972;51.784;4.660;2024-03-17T05:06:04;14.02;;;7.35;;
83099;SDS011;72972;51.784;4.660;2024-03-17T05:08:30;12.35;;;7.18;;
83099;SDS011;72972;51.784;4.660;2024-03-17T05:11:00;13.27;;;7.50;;
83099;SDS011;72972;51.784;4.660;2024-03-17T05:13:26;16.25;;;7.63;;
83099;SDS011;72972;51.784;4.660;2024-03-17T05:15:53;12.00;;;7.50;;
83099;SDS011;72972;51.784;4.660;2024-03-17T05:18:18;15.38;;;7.57;;
83099;SDS011;72972;51.784;4.660;2024-03-17T05:20:45;14.00;;;7.15;;
83099;SDS011;72972;51.784;4.660;2024-03-17T05:23:12;13.95;;;7.90;;
83099;SDS011;72972;51.784;4.660;2024-03-17T05:25:37;14.02;;;8.23;;
83099;SDS011;72972;51.784;4.660;2024-03-17T05:28:03;16.35;;;8.90;;
83099;SDS011;72972;51.784;4.660;2024-03-17T05:30:29;12.60;;;7.63;;
83099;SDS011;72972;51.784;4.660;2024-03-17T05:32:55;14.32;;;7.82;;
83099;SDS011;72972;51.784;4.660;2024-03-17T05:35:21;14.23;;;7.75;;
83099;SDS011;72972;51.784;4.660;2024-03-17T05:37:46;11.63;;;7.25;;
83099;SDS011;72972;51.784;4.660;2024-03-17T05:40:14;11.55;;;6.95;;
83099;SDS011;72972;51.784;4.660;2024-03-17T05:42:41;11.32;;;7.03;;
83099;SDS011;72972;51.784;4.660;2024-03-17T05:45:08;13.32;;;7.50;;
83099;SDS011;72972;51.784;4.660;2024-03-17T05:47:36;14.30;;;8.15;;
83099;SDS011;72972;51.784;4.660;2024-03-17T05:50:03;14.05;;;6.80;;
83099;SDS011;72972;51.784;4.660;2024-03-17T05:52:28;13.20;;;7.10;;
83099;SDS011;72972;51.784;4.660;2024-03-17T05:54:54;14.57;;;7.32;;
83099;SDS011;72972;51.784;4.660;2024-03-17T05:57:21;17.65;;;7.80;;
83099;SDS011;72972;51.784;4.660;2024-03-17T05:59:47;12.98;;;7.32;;
83099;SDS011;72972;51.784;4.660;2024-03-17T06:02:13;12.52;;;7.10;;
83099;SDS011;72972;51.784;4.660;2024-03-17T06:04:40;16.60;;;7.28;;
83099;SDS011;72972;51.784;4.660;2024-03-17T06:07:05;12.65;;;6.95;;
83099;SDS011;72972;51.784;4.660;2024-03-17T06:09:31;13.75;;;7.75;;
83099;SDS011;72972;51.784;4.660;2024-03-17T06:11:57;13.30;;;6.80;;
83099;SDS011;72972;51.784;4.660;2024-03-17T06:14:22;15.38;;;8.35;;
83099;SDS011;72972;51.784;4.660;2024-03-17T06:16:48;11.77;;;6.75;;
83099;SDS011;72972;51.784;4.660;2024-03-17T06:19:13;11.90;;;7.03;;
83099;SDS011;72972;51.784;4.660;2024-03-17T06:21:39;12.07;;;7.18;;
83099;SDS011;72972;51.784;4.660;2024-03-17T06:24:05;16.25;;;7.38;;
83099;SDS011;72972;51.784;4.660;2024-03-17T06:26:31;12.60;;;6.97;;
83099;SDS011;72972;51.784;4.660;2024-03-17T06:28:59;15.15;;;7.25;;
83099;SDS011;72972;51.784;4.660;2024-03-17T06:31:25;14.30;;;7.13;;
83099;SDS011;72972;51.784;4.660;2024-03-17T06:33:50;13.20;;;6.50;;
83099;SDS011;72972;51.784;4.660;2024-03-17T06:36:16;13.32;;;7.43;;
83099;SDS011;72972;51.784;4.660;2024-03-17T06:38:42;12.07;;;6.68;;
83099;SDS011;72972;51.784;4.660;2024-03-17T06:41:11;14.15;;;7.00;;
83099;SDS011;72972;51.784;4.660;2024-03-17T06:43:39;13.70;;;7.15;;
83099;SDS011;72972;51.784;4.660;2024-03-17T06:46:06;14.73;;;7.57;;
83099;SDS011;72972;51.784;4.660;2024-03-17T06:48:33;10.55;;;6.57;;
83099;SDS011;72972;51.784;4.660;2024-03-17T06:50:58;14.50;;;7.80;;
83099;SDS011;72972;51.784;4.660;2024-03-17T06:53:24;12.20;;;7.07;;
83099;SDS011;72972;51.784;4.660;2024-03-17T06:55:57;10.90;;;6.15;;
83099;SDS011;72972;51.784;4.660;2024-03-17T07:01:00;10.88;;;6.32;;
83099;SDS011;72972;51.784;4.660;2024-03-17T07:03:27;12.32;;;6.63;;
83099;SDS011;72972;51.784;4.660;2024-03-17T07:05:55;13.75;;;7.57;;
83099;SDS011;72972;51.784;4.660;2024-03-17T07:08:26;12.73;;;7.00;;
83099;SDS011;72972;51.784;4.660;2024-03-17T07:11:05;17.40;;;7.75;;
83099;SDS011;72972;51.784;4.660;2024-03-17T07:13:35;12.98;;;7.07;;
83099;SDS011;72972;51.784;4.660;2024-03-17T07:16:02;12.18;;;7.07;;
83099;SDS011;72972;51.784;4.660;2024-03-17T07:18:31;13.02;;;7.35;;
83099;SDS011;72972;51.784;4.660;2024-03-17T07:20:57;14.52;;;7.72;;
83099;SDS011;72972;51.784;4.660;2024-03-17T07:23:27;16.85;;;7.93;;
83099;SDS011;72972;51.784;4.660;2024-03-17T07:25:56;13.32;;;7.32;;
83099;SDS011;72972;51.784;4.660;2024-03-17T07:28:24;14.05;;;7.75;;
83099;SDS011;72972;51.784;4.660;2024-03-17T07:30:53;13.40;;;7.60;;
83099;SDS011;72972;51.784;4.660;2024-03-17T07:33:21;11.23;;;7.10;;
83099;SDS011;72972;51.784;4.660;2024-03-17T07:35:48;14.05;;;7.13;;
83099;SDS011;72972;51.784;4.660;2024-03-17T07:40:43;11.27;;;6.80;;
83099;SDS011;72972;51.784;4.660;2024-03-17T07:43:09;16.55;;;8.52;;
83099;SDS011;72972;51.784;4.660;2024-03-17T07:45:35;12.38;;;7.38;;
83099;SDS011;72972;51.784;4.660;2024-03-17T07:48:00;18.23;;;7.60;;
83099;SDS011;72972;51.784;4.660;2024-03-17T07:50:26;14.30;;;6.57;;
83099;SDS011;72972;51.784;4.660;2024-03-17T07:52:51;11.15;;;6.78;;
83099;SDS011;72972;51.784;4.660;2024-03-17T07:55:17;15.43;;;7.75;;
83099;SDS011;72972;51.784;4.660;2024-03-17T07:57:42;14.27;;;7.88;;
83099;SDS011;72972;51.784;4.660;2024-03-17T08:00:17;12.05;;;6.72;;
83099;SDS011;72972;51.784;4.660;2024-03-17T08:02:44;18.70;;;7.93;;
83099;SDS011;72972;51.784;4.660;2024-03-17T08:05:10;13.27;;;7.82;;
83099;SDS011;72972;51.784;4.660;2024-03-17T08:07:36;13.55;;;7.35;;
83099;SDS011;72972;51.784;4.660;2024-03-17T08:10:01;14.27;;;7.22;;
83099;SDS011;72972;51.784;4.660;2024-03-17T08:12:28;16.67;;;7.88;;
83099;SDS011;72972;51.784;4.660;2024-03-17T08:14:54;14.75;;;7.25;;
83099;SDS011;72972;51.784;4.660;2024-03-17T08:17:20;17.55;;;8.45;;
83099;SDS011;72972;51.784;4.660;2024-03-17T08:19:45;12.68;;;6.93;;
83099;SDS011;72972;51.784;4.660;2024-03-17T08:22:10;14.70;;;7.60;;
83099;SDS011;72972;51.784;4.660;2024-03-17T08:24:36;14.55;;;7.63;;
83099;SDS011;72972;51.784;4.660;2024-03-17T08:27:01;12.85;;;7.32;;
83099;SDS011;72972;51.784;4.660;2024-03-17T08:29:27;13.43;;;7.53;;
83099;SDS011;72972;51.784;4.660;2024-03-17T08:31:52;11.75;;;7.28;;
83099;SDS011;72972;51.784;4.660;2024-03-17T08:34:18;13.25;;;6.85;;
83099;SDS011;72972;51.784;4.660;2024-03-17T08:36:43;13.35;;;7.15;;
83099;SDS011;72972;51.784;4.660;2024-03-17T08:39:09;13.43;;;6.95;;
83099;SDS011;72972;51.784;4.660;2024-03-17T08:41:36;15.60;;;7.70;;
83099;SDS011;72972;51.784;4.660;2024-03-17T08:44:02;13.45;;;7.57;;
83099;SDS011;72972;51.784;4.660;2024-03-17T08:46:27;13.88;;;7.32;;
83099;SDS011;72972;51.784;4.660;2024-03-17T08:48:53;14.05;;;7.75;;
83099;SDS011;72972;51.784;4.660;2024-03-17T08:51:18;15.77;;;7.47;;
83099;SDS011;72972;51.784;4.660;2024-03-17T08:53:44;12.70;;;7.13;;
83099;SDS011;72972;51.784;4.660;2024-03-17T08:56:09;14.57;;;7.50;;
83099;SDS011;72972;51.784;4.660;2024-03-17T08:58:35;13.77;;;7.38;;
83099;SDS011;72972;51.784;4.660;2024-03-17T09:01:04;15.85;;;7.53;;
83099;SDS011;72972;51.784;4.660;2024-03-17T09:03:34;12.82;;;7.18;;
83099;SDS011;72972;51.784;4.660;2024-03-17T09:06:00;13.10;;;6.72;;
83099;SDS011;72972;51.784;4.660;2024-03-17T09:08:25;18.02;;;7.50;;
83099;SDS011;72972;51.784;4.660;2024-03-17T09:10:53;13.07;;;7.22;;
83099;SDS011;72972;51.784;4.660;2024-03-17T09:15:55;13.77;;;7.25;;
83099;SDS011;72972;51.784;4.660;2024-03-17T09:18:24;13.18;;;7.15;;
83099;SDS011;72972;51.784;4.660;2024-03-17T09:23:26;14.00;;;6.90;;
83099;SDS011;72972;51.784;4.660;2024-03-17T09:28:26;11.25;;;5.80;;
83099;SDS011;72972;51.784;4.660;2024-03-17T09:30:52;11.68;;;5.43;;
83099;SDS011;72972;51.784;4.660;2024-03-17T09:33:25;12.50;;;6.30;;
83099;SDS011;72972;51.784;4.660;2024-03-17T09:35:55;12.50;;;6.63;;
83099;SDS011;72972;51.784;4.660;2024-03-17T09:38:25;12.15;;;7.57;;
83099;SDS011;72972;51.784;4.660;2024-03-17T09:40:52;13.68;;;6.80;;
83099;SDS011;72972;51.784;4.660;2024-03-17T09:43:18;11.18;;;5.90;;
83099;SDS011;72972;51.784;4.660;2024-03-17T09:45:48;10.35;;;6.38;;
83099;SDS011;72972;51.784;4.660;2024-03-17T09:48:15;15.63;;;7.45;;
83099;SDS011;72972;51.784;4.660;2024-03-17T09:51:05;12.30;;;6.10;;
83099;SDS011;72972;51.784;4.660;2024-03-17T09:53:31;13.45;;;7.13;;
83099;SDS011;72972;51.784;4.660;2024-03-17T09:55:58;18.13;;;7.07;;
83099;SDS011;72972;51.784;4.660;2024-03-17T09:58:26;12.88;;;6.65;;
83099;SDS011;72972;51.784;4.660;2024-03-17T10:00:52;12.60;;;6.57;;
83099;SDS011;72972;51.784;4.660;2024-03-17T10:06:09;11.52;;;6.75;;
83099;SDS011;72972;51.784;4.660;2024-03-17T10:08:40;12.55;;;6.68;;
83099;SDS011;72972;51.784;4.660;2024-03-17T10:11:09;10.95;;;6.07;;
83099;SDS011;72972;51.784;4.660;2024-03-17T10:13:35;9.13;;;5.80;;
83099;SDS011;72972;51.784;4.660;2024-03-17T10:16:00;10.25;;;6.20;;
83099;SDS011;72972;51.784;4.660;2024-03-17T10:18:25;11.38;;;6.35;;
83099;SDS011;72972;51.784;4.660;2024-03-17T10:20:51;12.50;;;5.80;;
83099;SDS011;72972;51.784;4.660;2024-03-17T10:23:21;11.70;;;6.07;;
83099;SDS011;72972;51.784;4.660;2024-03-17T10:25:47;10.68;;;5.93;;
83099;SDS011;72972;51.784;4.660;2024-03-17T10:28:13;11.00;;;5.80;;
83099;SDS011;72972;51.784;4.660;2024-03-17T10:30:39;10.68;;;5.60;;
83099;SDS011;72972;51.784;4.660;2024-03-17T10:33:05;15.60;;;6.55;;
83099;SDS011;72972;51.784;4.660;2024-03-17T10:35:37;13.18;;;6.82;;
83099;SDS011;72972;51.784;4.660;2024-03-17T10:38:06;15.45;;;6.68;;
83099;SDS011;72972;51.784;4.660;2024-03-17T10:40:33;9.85;;;5.38;;
83099;SDS011;72972;51.784;4.660;2024-03-17T10:43:01;11.20;;;5.32;;
83099;SDS011;72972;51.784;4.660;2024-03-17T10:45:28;8.27;;;5.35;;
83099;SDS011;72972;51.784;4.660;2024-03-17T10:48:01;10.45;;;5.40;;
83099;SDS011;72972;51.784;4.660;2024-03-17T10:50:31;13.18;;;6.38;;
83099;SDS011;72972;51.784;4.660;2024-03-17T10:53:05;8.98;;;4.78;;
83099;SDS011;72972;51.784;4.660;2024-03-17T10:55:54;10.60;;;5.72;;
83099;SDS011;72972;51.784;4.660;2024-03-17T10:58:33;16.80;;;5.50;;
83099;SDS011;72972;51.784;4.660;2024-03-17T11:01:03;11.52;;;5.88;;
83099;SDS011;72972;51.784;4.660;2024-03-17T11:03:32;10.02;;;5.15;;
83099;SDS011;72972;51.784;4.660;2024-03-17T11:05:59;10.07;;;5.72;;
83099;SDS011;72972;51.784;4.660;2024-03-17T11:08:29;7.85;;;4.85;;
83099;SDS011;72972;51.784;4.660;2024-03-17T11:10:56;14.18;;;5.78;;
83099;SDS011;72972;51.784;4.660;2024-03-17T11:13:22;12.23;;;6.15;;
83099;SDS011;72972;51.784;4.660;2024-03-17T11:15:49;9.45;;;5.25;;
83099;SDS011;72972;51.784;4.660;2024-03-17T11:21:30;10.13;;;5.57;;
83099;SDS011;72972;51.784;4.660;2024-03-17T11:23:57;13.68;;;5.75;;
83099;SDS011;72972;51.784;4.660;2024-03-17T11:26:27;15.27;;;5.45;;
83099;SDS011;72972;51.784;4.660;2024-03-17T11:28:54;14.73;;;5.35;;
83099;SDS011;72972;51.784;4.660;2024-03-17T11:34:28;12.65;;;5.28;;
83099;SDS011;72972;51.784;4.660;2024-03-17T11:36:56;10.35;;;5.32;;
83099;SDS011;72972;51.784;4.660;2024-03-17T11:42:23;9.88;;;5.13;;
83099;SDS011;72972;51.784;4.660;2024-03-17T11:45:09;12.82;;;5.15;;
83099;SDS011;72972;51.784;4.660;2024-03-17T11:47:41;13.65;;;5.43;;
83099;SDS011;72972;51.784;4.660;2024-03-17T11:50:08;9.52;;;5.10;;
83099;SDS011;72972;51.784;4.660;2024-03-17T11:52:36;12.85;;;5.47;;
83099;SDS011;72972;51.784;4.660;2024-03-17T11:55:02;8.77;;;4.55;;
83099;SDS011;72972;51.784;4.660;2024-03-17T11:57:28;9.93;;;4.80;;
83099;SDS011;72972;51.784;4.660;2024-03-17T11:59:55;9.70;;;4.68;;
83099;SDS011;72972;51.784;4.660;2024-03-17T12:02:26;13.75;;;5.90;;
83099;SDS011;72972;51.784;4.660;2024-03-17T12:04:57;9.88;;;5.13;;
83099;SDS011;72972;51.784;4.660;2024-03-17T12:09:51;11.50;;;4.68;;
83099;SDS011;72972;51.784;4.660;2024-03-17T12:12:20;11.05;;;4.60;;
83099;SDS011;72972;51.784;4.660;2024-03-17T12:14:47;7.32;;;3.92;;
83099;SDS011;72972;51.784;4.660;2024-03-17T12:17:14;9.23;;;4.72;;
83099;SDS011;72972;51.784;4.660;2024-03-17T12:19:45;10.35;;;4.93;;
83099;SDS011;72972;51.784;4.660;2024-03-17T12:22:30;12.75;;;4.88;;
83099;SDS011;72972;51.784;4.660;2024-03-17T12:25:02;12.93;;;4.15;;
83099;SDS011;72972;51.784;4.660;2024-03-17T12:27:29;14.23;;;4.10;;
83099;SDS011;72972;51.784;4.660;2024-03-17T12:29:55;9.70;;;4.43;;
83099;SDS011;72972;51.784;4.660;2024-03-17T12:32:22;7.75;;;4.10;;
83099;SDS011;72972;51.784;4.660;2024-03-17T12:34:50;11.65;;;4.30;;
83099;SDS011;72972;51.784;4.660;2024-03-17T12:37:18;11.25;;;4.50;;
83099;SDS011;72972;51.784;4.660;2024-03-17T12:39:49;12.25;;;5.38;;
83099;SDS011;72972;51.784;4.660;2024-03-17T12:42:16;8.95;;;4.35;;
83099;SDS011;72972;51.784;4.660;2024-03-17T12:44:58;11.10;;;5.30;;
83099;SDS011;72972;51.784;4.660;2024-03-17T12:47:29;10.30;;;4.88;;
83099;SDS011;72972;51.784;4.660;2024-03-17T12:49:58;11.77;;;4.03;;
83099;SDS011;72972;51.784;4.660;2024-03-17T12:52:28;7.32;;;3.97;;
83099;SDS011;72972;51.784;4.660;2024-03-17T13:00:58;11.90;;;3.97;;
83099;SDS011;72972;51.784;4.660;2024-03-17T13:03:28;7.63;;;3.80;;
83099;SDS011;72972;51.784;4.660;2024-03-17T13:06:00;9.82;;;4.53;;
83099;SDS011;72972;51.784;4.660;2024-03-17T13:08:36;9.52;;;3.80;;
83099;SDS011;72972;51.784;4.660;2024-03-17T13:11:02;7.07;;;3.88;;
83099;SDS011;72972;51.784;4.660;2024-03-17T13:13:34;9.65;;;3.78;;
83099;SDS011;72972;51.784;4.660;2024-03-17T13:16:00;7.45;;;4.00;;
83099;SDS011;72972;51.784;4.660;2024-03-17T13:18:27;8.50;;;4.00;;
83099;SDS011;72972;51.784;4.660;2024-03-17T13:20:52;12.70;;;4.80;;
83099;SDS011;72972;51.784;4.660;2024-03-17T13:23:19;8.38;;;4.43;;
83099;SDS011;72972;51.784;4.660;2024-03-17T13:25:49;6.85;;;3.65;;
83099;SDS011;72972;51.784;4.660;2024-03-17T13:28:15;5.72;;;3.40;;
83099;SDS011;72972;51.784;4.660;2024-03-17T13:30:41;10.95;;;3.60;;
83099;SDS011;72972;51.784;4.660;2024-03-17T13:33:08;12.32;;;3.63;;
83099;SDS011;72972;51.784;4.660;2024-03-17T13:35:37;10.55;;;5.05;;
83099;SDS011;72972;51.784;4.660;2024-03-17T13:38:07;11.70;;;4.00;;
83099;SDS011;72972;51.784;4.660;2024-03-17T13:40:36;12.50;;;4.15;;
83099;SDS011;72972;51.784;4.660;2024-03-17T13:43:03;9.77;;;4.18;;
83099;SDS011;72972;51.784;4.660;2024-03-17T13:45:31;7.05;;;4.00;;
83099;SDS011;72972;51.784;4.660;2024-03-17T13:48:07;16.63;;;4.88;;
83099;SDS011;72972;51.784;4.660;2024-03-17T13:50:36;9.02;;;4.05;;
83099;SDS011;72972;51.784;4.660;2024-03-17T13:53:03;11.07;;;3.85;;
83099;SDS011;72972;51.784;4.660;2024-03-17T13:55:29;8.77;;;3.67;;
83099;SDS011;72972;51.784;4.660;2024-03-17T13:57:56;13.38;;;3.78;;
83099;SDS011;72972;51.784;4.660;2024-03-17T14:00:33;8.68;;;3.95;;
83099;SDS011;72972;51.784;4.660;2024-03-17T14:03:05;7.78;;;3.55;;
83099;SDS011;72972;51.784;4.660;2024-03-17T14:05:30;10.82;;;4.72;;
83099;SDS011;72972;51.784;4.660;2024-03-17T14:07:59;9.52;;;3.35;;
83099;SDS011;72972;51.784;4.660;2024-03-17T14:10:26;6.32;;;3.47;;
83099;SDS011;72972;51.784;4.660;2024-03-17T14:12:52;6.10;;;3.25;;
83099;SDS011;72972;51.784;4.660;2024-03-17T14:15:22;6.22;;;3.30;;
83099;SDS011;72972;51.784;4.660;2024-03-17T14:17:48;8.38;;;3.30;;
83099;SDS011;72972;51.784;4.660;2024-03-17T14:20:16;7.18;;;3.55;;
83099;SDS011;72972;51.784;4.660;2024-03-17T14:22:43;6.43;;;2.90;;
83099;SDS011;72972;51.784;4.660;2024-03-17T14:25:14;7.65;;;2.97;;
83099;SDS011;72972;51.784;4.660;2024-03-17T14:27:42;6.32;;;3.45;;
83099;SDS011;72972;51.784;4.660;2024-03-17T14:30:08;8.38;;;3.90;;
83099;SDS011;72972;51.784;4.660;2024-03-17T14:32:35;7.47;;;3.78;;
83099;SDS011;72972;51.784;4.660;2024-03-17T14:35:01;9.77;;;3.85;;
83099;SDS011;72972;51.784;4.660;2024-03-17T14:37:27;9.90;;;3.83;;
83099;SDS011;72972;51.784;4.660;2024-03-17T14:39:54;10.32;;;3.85;;
83099;SDS011;72972;51.784;4.660;2024-03-17T14:42:20;7.25;;;4.07;;
83099;SDS011;72972;51.784;4.660;2024-03-17T14:44:46;6.85;;;3.20;;
83099;SDS011;72972;51.784;4.660;2024-03-17T14:47:13;8.82;;;3.70;;
83099;SDS011;72972;51.784;4.660;2024-03-17T14:49:39;8.68;;;3.75;;
83099;SDS011;72972;51.784;4.660;2024-03-17T14:52:07;7.05;;;3.80;;
83099;SDS011;72972;51.784;4.660;2024-03-17T14:54:34;5.90;;;3.47;;
83099;SDS011;72972;51.784;4.660;2024-03-17T14:57:00;7.85;;;3.42;;
83099;SDS011;72972;51.784;4.660;2024-03-17T14:59:26;8.23;;;3.63;;
83099;SDS011;72972;51.784;4.660;2024-03-17T15:01:51;6.22;;;3.53;;
83099;SDS011;72972;51.784;4.660;2024-03-17T15:04:17;7.78;;;3.65;;
83099;SDS011;72972;51.784;4.660;2024-03-17T15:06:44;7.38;;;3.33;;
83099;SDS011;72972;51.784;4.660;2024-03-17T15:09:10;9.05;;;3.70;;
83099;SDS011;72972;51.784;4.660;2024-03-17T15:11:38;8.95;;;4.15;;